createdAt,value
2022-12-03T00:11:02.228Z,76.22
2022-12-03T00:26:05.259Z,75.92
2022-12-03T00:41:07.707Z,76.42
2022-12-03T00:56:10.383Z,76.22
2022-12-03T01:11:32.122Z,76.15
2022-12-03T01:26:34.544Z,75.91
2022-12-03T01:41:38.478Z,76.48
2022-12-03T01:56:41.228Z,77.04
2022-12-03T02:11:50.528Z,76.72
2022-12-03T02:26:53.007Z,77.48
2022-12-03T02:42:13.979Z,77.55
2022-12-03T02:57:17.018Z,78.20
2022-12-03T03:12:19.830Z,78.02
2022-12-03T03:27:22.343Z,78.17
2022-12-03T03:42:25.233Z,78.15
2022-12-03T03:57:27.675Z,78.39
2022-12-03T04:12:49.159Z,77.82
2022-12-03T04:28:24.602Z,78.53
2022-12-03T04:43:28.822Z,78.04
2022-12-03T04:58:31.213Z,78.76
2022-12-03T05:13:48.505Z,78.79
2022-12-03T05:29:05.528Z,78.46
2022-12-03T05:44:07.910Z,78.78
2022-12-03T05:59:10.757Z,79.10
2022-12-03T06:14:13.632Z,78.85
2022-12-03T06:29:30.727Z,78.39
2022-12-03T06:44:34.060Z,78.71
2022-12-03T06:59:36.985Z,78.72
2022-12-03T07:14:40.033Z,78.40
2022-12-03T07:29:42.947Z,78.44
2022-12-03T07:44:45.793Z,78.39
2022-12-03T07:59:48.603Z,78.53
2022-12-03T08:14:52.268Z,78.52
2022-12-03T08:30:14.195Z,77.99
2022-12-03T08:45:42.628Z,77.80
2022-12-03T09:00:45.674Z,78.63
2022-12-03T09:16:02.950Z,77.74
2022-12-03T09:31:20.270Z,77.92
2022-12-03T09:46:39.408Z,78.50
2022-12-03T10:01:42.205Z,77.95
2022-12-03T10:16:59.834Z,78.25
2022-12-03T10:32:08.168Z,78.61
2022-12-03T10:47:13.998Z,78.15
2022-12-03T11:02:24.166Z,78.32
2022-12-03T11:17:40.747Z,78.79
2022-12-03T11:33:01.137Z,78.68
2022-12-03T11:48:14.083Z,77.96
2022-12-03T12:03:27.646Z,78.67
2022-12-03T12:18:55.186Z,78.32
2022-12-03T12:33:58.681Z,78.06
2022-12-03T12:49:01.700Z,78.38
2022-12-03T13:04:22.359Z,78.76
2022-12-03T13:19:46.076Z,78.33
2022-12-03T13:34:50.328Z,78.22
2022-12-03T13:49:57.873Z,78.32
2022-12-03T14:05:01.006Z,79.13
2022-12-03T14:20:19.954Z,78.54
2022-12-03T14:35:22.754Z,78.61
2022-12-03T14:50:25.838Z,79.23
2022-12-03T15:05:29.311Z,78.62
2022-12-03T15:20:35.167Z,78.89
2022-12-03T15:35:37.825Z,79.35
2022-12-03T15:50:40.774Z,79.65
2022-12-03T16:05:43.648Z,79.31
2022-12-03T16:20:46.723Z,79.30
2022-12-03T16:35:49.947Z,79.11
2022-12-03T16:50:53.316Z,79.74
2022-12-03T17:05:56.267Z,79.68
2022-12-03T17:20:59.740Z,79.57
2022-12-03T17:36:03.518Z,79.57
2022-12-03T17:51:06.558Z,80.18
2022-12-03T18:06:09.402Z,79.41
2022-12-03T18:21:13.769Z,79.89
2022-12-03T18:36:36.645Z,80.24
2022-12-03T18:51:39.749Z,80.05
2022-12-03T19:06:42.678Z,79.57
2022-12-03T19:21:46.989Z,80.32
2022-12-03T19:36:54.731Z,80.41
2022-12-03T19:51:58.886Z,80.89
2022-12-03T20:07:02.045Z,80.24
2022-12-03T20:22:05.346Z,80.54
2022-12-03T20:37:08.958Z,80.33
2022-12-03T20:52:12.272Z,80.58
2022-12-03T21:07:15.070Z,80.86
2022-12-03T21:22:18.353Z,80.49
2022-12-03T21:37:21.755Z,80.50
2022-12-03T21:52:24.689Z,80.52
2022-12-03T22:07:27.792Z,80.72
2022-12-03T22:22:31.423Z,80.87
2022-12-03T22:37:34.591Z,81.10
2022-12-03T22:52:37.431Z,81.45
2022-12-03T23:07:40.328Z,81.32
2022-12-03T23:22:43.815Z,81.47
2022-12-03T23:37:46.907Z,81.59
2022-12-03T23:52:50.053Z,81.63
